Terminal Aerodrome Forecast
Issued by NWS

Home | Current Version | Previous Version | Text Only | Print | Product List | Glossary On
Versions: 1 2 3 4 5 6 7 8 9 10 11 12 13 14 15 16 17 18 19
465
FTUS41 KPHI 190535
TAFPNE
TAF
KPNE 190535Z 1906/2006 14003KT P6SM SCT200
     FM191300 15005KT P6SM OVC040
     FM191800 17008KT P6SM OVC025
     FM192000 19008KT 6SM -SHRA OVC015
     FM192200 19006KT 5SM -SHRA OVC007
     FM200000 19004KT 2SM BR OVC006=

USA.gov is the U.S. government's official web portal to all federal, state and local government web resources and services.